Time;durP1;ratioP1;P1;durP2;ratioP2;P2;SDS_P1;SDS_P2;PMS_P1;PMS_P2;Temp;Humidity;BMP_temperature;BMP_pressure;BME280_temperature;BME280_humidity;BME280_pressure;Samples;Min_cycle;Max_cycle;Signal;HPM_P1;HPM_P2
2022/08/30 00:02:27;;;;;;;;;6.67;5.67;;;;;;;;5099459;27;45356;-74
2022/08/30 00:04:53;;;;;;;;;6.33;6.00;;;;;;;;5080628;27;45497;-75
2022/08/30 00:07:18;;;;;;;;;7.33;5.33;;;;;;;;5099150;27;47325;-74
2022/08/30 00:09:43;;;;;;;;;12.00;7.33;;;;;;;;5099284;27;45380;-74
2022/08/30 00:12:08;;;;;;;;;8.67;7.00;;;;;;;;5099870;27;45352;-74
2022/08/30 00:14:34;;;;;;;;;5.67;5.67;;;;;;;;5099768;27;45423;-75
2022/08/30 00:16:59;;;;;;;;;6.00;6.00;;;;;;;;5099272;27;45458;-74
2022/08/30 00:19:24;;;;;;;;;8.33;5.67;;;;;;;;5099559;27;45569;-74
2022/08/30 00:21:49;;;;;;;;;7.00;6.00;;;;;;;;5098490;27;45431;-74
2022/08/30 00:24:14;;;;;;;;;6.33;6.33;;;;;;;;5099711;27;45344;-74
2022/08/30 00:26:40;;;;;;;;;8.00;7.33;;;;;;;;5099228;27;45439;-74
2022/08/30 00:29:05;;;;;;;;;9.33;6.00;;;;;;;;5098805;27;45451;-74
2022/08/30 00:31:30;;;;;;;;;8.00;6.00;;;;;;;;5098544;27;45395;-74
2022/08/30 00:33:55;;;;;;;;;11.00;7.33;;;;;;;;5096428;27;45151;-74
2022/08/30 00:36:20;;;;;;;;;9.33;6.00;;;;;;;;5078658;28;45443;-74
2022/08/30 00:38:46;;;;;;;;;11.00;6.33;;;;;;;;5079090;27;45411;-74
2022/08/30 00:41:11;;;;;;;;;13.00;7.00;;;;;;;;5078747;28;45451;-74
2022/08/30 00:43:36;;;;;;;;;6.00;6.00;;;;;;;;5078945;28;45329;-74
2022/08/30 00:46:03;;;;;;;;;7.67;6.67;;;;;;;;5083599;27;45775;-73
2022/08/30 00:48:30;;;;;;;;;7.00;7.00;;;;;;;;5099770;27;45263;-74
2022/08/30 00:50:57;;;;;;;;;9.67;8.00;;;;;;;;5099759;27;45230;-74
2022/08/30 00:53:29;;;;;;;;;6.00;4.33;;;;;;;;5099764;27;45524;-74
2022/08/30 00:55:56;;;;;;;;;7.67;7.67;;;;;;;;5079600;27;45654;-73
2022/08/30 00:58:24;;;;;;;;;8.67;7.33;;;;;;;;5079009;28;45249;-74
2022/08/30 01:00:52;;;;;;;;;15.33;9.67;;;;;;;;5078468;28;45384;-73
2022/08/30 01:03:17;;;;;;;;;10.00;8.00;;;;;;;;5078716;27;45350;-73
2022/08/30 01:05:43;;;;;;;;;8.00;6.33;;;;;;;;5078608;27;45445;-76
2022/08/30 01:08:08;;;;;;;;;7.00;7.00;;;;;;;;5078462;28;45836;-73
2022/08/30 01:10:35;;;;;;;;;12.67;11.00;;;;;;;;5079584;27;45410;-74
2022/08/30 01:13:00;;;;;;;;;8.00;8.00;;;;;;;;5078098;27;45508;-73
2022/08/30 01:15:26;;;;;;;;;12.33;8.33;;;;;;;;5078741;28;45324;-74
2022/08/30 01:17:51;;;;;;;;;9.00;7.67;;;;;;;;5078716;28;45228;-73
2022/08/30 01:20:19;;;;;;;;;12.00;10.67;;;;;;;;5079199;28;45250;-73
2022/08/30 01:22:47;;;;;;;;;11.33;8.33;;;;;;;;5082412;27;45603;-73
2022/08/30 01:25:14;;;;;;;;;9.67;8.00;;;;;;;;5098919;27;46363;-73
2022/08/30 01:27:43;;;;;;;;;10.00;10.00;;;;;;;;5098299;27;45250;-73
2022/08/30 01:30:09;;;;;;;;;7.00;7.00;;;;;;;;5098791;27;45197;-73
2022/08/30 01:32:38;;;;;;;;;13.67;9.33;;;;;;;;5099068;27;45731;-73
2022/08/30 01:35:03;;;;;;;;;10.67;9.33;;;;;;;;5098988;27;47379;-73
2022/08/30 01:37:30;;;;;;;;;11.33;11.33;;;;;;;;5079426;27;45445;-73
2022/08/30 01:39:55;;;;;;;;;14.67;12.00;;;;;;;;5078598;28;45435;-73
2022/08/30 01:42:21;;;;;;;;;10.67;10.00;;;;;;;;5078607;28;45235;-73
2022/08/30 01:44:47;;;;;;;;;12.67;11.00;;;;;;;;5078802;27;45458;-73
2022/08/30 01:47:13;;;;;;;;;11.67;9.00;;;;;;;;5060147;28;45338;-73
2022/08/30 01:49:39;;;;;;;;;11.00;9.00;;;;;;;;5078463;28;45503;-73
2022/08/30 01:52:05;;;;;;;;;13.67;12.00;;;;;;;;5078372;28;45268;-73
2022/08/30 01:54:32;;;;;;;;;18.67;12.00;;;;;;;;5077759;28;46628;-73
2022/08/30 01:56:57;;;;;;;;;14.00;12.33;;;;;;;;5078008;28;45549;-73
2022/08/30 01:59:22;;;;;;;;;14.67;10.00;;;;;;;;5078353;28;45435;-73
2022/08/30 02:01:47;;;;;;;;;16.67;12.67;;;;;;;;5060240;27;45309;-72
2022/08/30 02:04:13;;;;;;;;;15.00;13.33;;;;;;;;5092979;27;46513;-73
2022/08/30 02:06:38;;;;;;;;;12.33;9.33;;;;;;;;5098033;27;45553;-73
2022/08/30 02:09:06;;;;;;;;;18.33;14.00;;;;;;;;5098280;27;45346;-73
2022/08/30 02:11:31;;;;;;;;;16.33;11.33;;;;;;;;5098541;27;45414;-73
2022/08/30 02:13:56;;;;;;;;;13.00;13.00;;;;;;;;5097615;27;45357;-73
2022/08/30 02:16:22;;;;;;;;;13.67;13.33;;;;;;;;5098375;27;45391;-73
2022/08/30 02:18:49;;;;;;;;;14.33;12.33;;;;;;;;5097482;27;45170;-73
2022/08/30 02:21:14;;;;;;;;;15.67;12.67;;;;;;;;5098424;27;45406;-73
2022/08/30 02:23:40;;;;;;;;;14.00;13.33;;;;;;;;5098179;27;45278;-73
2022/08/30 02:26:05;;;;;;;;;18.33;12.67;;;;;;;;5098053;27;45850;-73
2022/08/30 02:28:30;;;;;;;;;7.67;6.00;;;;;;;;5098519;27;45288;-73
2022/08/30 02:30:56;;;;;;;;;13.67;13.00;;;;;;;;5098331;27;45359;-73
2022/08/30 02:33:21;;;;;;;;;17.00;14.00;;;;;;;;5081993;27;45579;-72
2022/08/30 02:35:46;;;;;;;;;17.00;16.00;;;;;;;;5078161;27;45425;-73
2022/08/30 02:38:12;;;;;;;;;13.67;12.67;;;;;;;;5098745;27;45403;-73
2022/08/30 02:40:37;;;;;;;;;16.00;15.00;;;;;;;;5098201;27;45361;-73
2022/08/30 02:43:02;;;;;;;;;22.00;15.00;;;;;;;;5098013;27;45702;-73
2022/08/30 02:45:28;;;;;;;;;15.33;12.00;;;;;;;;5097957;27;45355;-73
2022/08/30 02:47:55;;;;;;;;;14.00;13.67;;;;;;;;5098275;27;45429;-73
2022/08/30 02:50:20;;;;;;;;;16.00;14.67;;;;;;;;5098051;27;45340;-73
2022/08/30 02:52:46;;;;;;;;;20.67;15.33;;;;;;;;5096588;27;46231;-73
2022/08/30 02:55:11;;;;;;;;;17.33;14.00;;;;;;;;5080865;27;45698;-73
2022/08/30 02:57:39;;;;;;;;;17.67;14.00;;;;;;;;5062933;28;45229;-73
2022/08/30 03:00:06;;;;;;;;;13.00;11.33;;;;;;;;5081522;28;45311;-73
2022/08/30 03:02:32;;;;;;;;;19.33;15.00;;;;;;;;5080695;28;46037;-73
2022/08/30 03:04:57;;;;;;;;;14.00;11.33;;;;;;;;5095213;27;45430;-72
2022/08/30 03:07:22;;;;;;;;;15.33;13.33;;;;;;;;5101293;27;45235;-73
2022/08/30 03:09:48;;;;;;;;;18.00;16.67;;;;;;;;5098905;27;45485;-73
2022/08/30 03:12:13;;;;;;;;;17.67;17.00;;;;;;;;5080841;28;46172;-72
2022/08/30 03:14:38;;;;;;;;;22.33;17.33;;;;;;;;5080543;28;45476;-72
2022/08/30 03:17:05;;;;;;;;;16.67;14.67;;;;;;;;5062672;28;45311;-72
2022/08/30 03:19:31;;;;;;;;;18.67;11.67;;;;;;;;5080918;28;45424;-72
2022/08/30 03:21:56;;;;;;;;;17.00;13.00;;;;;;;;5080378;28;47033;-72
2022/08/30 03:24:21;;;;;;;;;16.33;15.00;;;;;;;;5080623;28;45305;-73
2022/08/30 03:26:46;;;;;;;;;19.00;14.00;;;;;;;;5080988;27;45435;-73
2022/08/30 03:29:12;;;;;;;;;16.00;12.33;;;;;;;;5080969;28;45446;-73
2022/08/30 03:31:37;;;;;;;;;16.67;13.33;;;;;;;;5080343;27;46480;-73
2022/08/30 03:34:04;;;;;;;;;16.67;15.00;;;;;;;;5080105;28;45306;-73
2022/08/30 03:36:29;;;;;;;;;21.00;17.67;;;;;;;;5080453;27;45431;-73
2022/08/30 03:38:54;;;;;;;;;16.33;14.67;;;;;;;;5080409;28;45329;-73
2022/08/30 03:41:20;;;;;;;;;17.67;13.33;;;;;;;;5080075;28;46031;-73
2022/08/30 03:43:46;;;;;;;;;24.67;16.00;;;;;;;;5080837;27;45307;-73
2022/08/30 03:46:11;;;;;;;;;14.00;13.67;;;;;;;;5080400;28;45376;-73
2022/08/30 03:48:37;;;;;;;;;17.33;15.33;;;;;;;;5080554;28;45311;-73
2022/08/30 03:51:02;;;;;;;;;18.33;16.00;;;;;;;;5079604;28;45356;-73
2022/08/30 03:53:27;;;;;;;;;17.33;16.67;;;;;;;;5080200;27;45366;-73
2022/08/30 03:55:52;;;;;;;;;18.67;17.33;;;;;;;;5080027;28;45578;-73
2022/08/30 03:58:18;;;;;;;;;17.33;17.00;;;;;;;;5080406;27;45416;-73
2022/08/30 04:00:43;;;;;;;;;20.67;17.00;;;;;;;;5080592;27;45495;-73
2022/08/30 04:03:08;;;;;;;;;16.33;14.33;;;;;;;;5080039;28;45274;-74
2022/08/30 04:05:34;;;;;;;;;22.33;17.67;;;;;;;;5081077;27;45310;-74
2022/08/30 04:07:59;;;;;;;;;18.33;18.33;;;;;;;;5100599;27;45470;-73
2022/08/30 04:10:25;;;;;;;;;19.00;16.00;;;;;;;;5097945;27;47200;-73
2022/08/30 04:12:50;;;;;;;;;17.33;16.00;;;;;;;;5079839;28;45218;-73
2022/08/30 04:15:16;;;;;;;;;21.00;16.33;;;;;;;;5061614;28;45534;-73
2022/08/30 04:17:42;;;;;;;;;17.67;17.00;;;;;;;;5081413;27;45362;-73
2022/08/30 04:20:07;;;;;;;;;18.33;17.33;;;;;;;;5099988;27;45708;-73
2022/08/30 04:22:32;;;;;;;;;19.33;17.33;;;;;;;;5100066;27;45233;-73
2022/08/30 04:24:58;;;;;;;;;25.00;16.67;;;;;;;;5100334;27;45461;-73
2022/08/30 04:27:23;;;;;;;;;19.00;15.67;;;;;;;;5100291;27;45461;-73
2022/08/30 04:29:48;;;;;;;;;22.00;19.67;;;;;;;;5100223;27;45342;-73
2022/08/30 04:32:15;;;;;;;;;23.67;16.67;;;;;;;;5079842;27;45392;-73
2022/08/30 04:34:40;;;;;;;;;22.67;21.33;;;;;;;;5079917;27;45351;-73
2022/08/30 04:37:05;;;;;;;;;22.00;19.00;;;;;;;;5095350;27;45403;-73
2022/08/30 04:39:31;;;;;;;;;23.33;15.67;;;;;;;;5099754;27;47202;-73
2022/08/30 04:41:56;;;;;;;;;20.67;17.67;;;;;;;;5099788;27;45352;-73
2022/08/30 04:44:22;;;;;;;;;20.00;17.67;;;;;;;;5099909;27;45316;-73
2022/08/30 04:46:47;;;;;;;;;20.67;19.67;;;;;;;;5100045;27;45288;-73
2022/08/30 04:49:12;;;;;;;;;22.33;18.00;;;;;;;;5099730;27;45304;-73
2022/08/30 04:51:38;;;;;;;;;25.67;21.00;;;;;;;;5098733;27;45295;-73
2022/08/30 04:54:03;;;;;;;;;21.67;18.67;;;;;;;;5099949;27;45345;-74
2022/08/30 04:56:28;;;;;;;;;20.67;20.67;;;;;;;;5079686;27;45459;-73
2022/08/30 04:58:54;;;;;;;;;20.67;20.00;;;;;;;;5078991;28;46941;-73
2022/08/30 05:01:21;;;;;;;;;22.33;20.00;;;;;;;;5079051;27;45443;-73
2022/08/30 05:03:47;;;;;;;;;24.00;18.00;;;;;;;;5079099;28;45229;-73
2022/08/30 05:06:13;;;;;;;;;20.67;19.67;;;;;;;;5078867;27;45535;-73
2022/08/30 05:08:38;;;;;;;;;19.33;15.67;;;;;;;;5079173;27;46122;-73
2022/08/30 05:11:04;;;;;;;;;18.33;16.00;;;;;;;;5078522;28;45361;-73
2022/08/30 05:13:30;;;;;;;;;22.00;16.00;;;;;;;;5079189;28;45344;-73
2022/08/30 05:15:55;;;;;;;;;22.33;19.67;;;;;;;;5078744;28;45305;-73
2022/08/30 05:18:20;;;;;;;;;19.67;16.67;;;;;;;;5060852;28;45400;-73
2022/08/30 05:20:46;;;;;;;;;15.33;15.33;;;;;;;;5078975;28;45366;-73
2022/08/30 05:23:11;;;;;;;;;15.67;15.67;;;;;;;;5078941;28;45398;-73
2022/08/30 05:25:37;;;;;;;;;22.67;19.33;;;;;;;;5079130;28;45281;-73
2022/08/30 05:28:03;;;;;;;;;22.00;18.33;;;;;;;;5078443;28;46630;-73
2022/08/30 05:30:31;;;;;;;;;18.33;18.00;;;;;;;;5078285;27;45301;-73
2022/08/30 05:32:56;;;;;;;;;19.33;19.33;;;;;;;;5078768;28;45328;-73
2022/08/30 05:35:22;;;;;;;;;23.00;20.33;;;;;;;;5078766;28;45210;-73
2022/08/30 05:37:47;;;;;;;;;18.00;18.00;;;;;;;;5078653;28;45386;-73
2022/08/30 05:40:16;;;;;;;;;23.67;19.33;;;;;;;;5078525;27;45355;-73
2022/08/30 05:42:41;;;;;;;;;17.33;17.00;;;;;;;;5078506;28;45296;-73
2022/08/30 05:45:07;;;;;;;;;15.67;15.00;;;;;;;;5088483;27;45713;-74
2022/08/30 05:47:33;;;;;;;;;22.67;15.67;;;;;;;;5098730;27;45481;-73
2022/08/30 05:49:58;;;;;;;;;22.00;17.67;;;;;;;;5098725;27;45417;-73
2022/08/30 05:52:23;;;;;;;;;21.67;15.00;;;;;;;;5098800;27;45299;-73
2022/08/30 05:54:53;;;;;;;;;24.00;17.00;;;;;;;;5099125;27;45373;-73
2022/08/30 05:57:18;;;;;;;;;20.00;16.33;;;;;;;;5098202;27;45740;-73
2022/08/30 05:59:44;;;;;;;;;16.33;15.33;;;;;;;;5097963;27;45319;-73
2022/08/30 06:02:09;;;;;;;;;18.00;16.33;;;;;;;;5090190;27;45419;-74
2022/08/30 06:04:35;;;;;;;;;23.33;17.33;;;;;;;;5078366;28;45535;-73
2022/08/30 06:07:01;;;;;;;;;16.67;14.67;;;;;;;;5077789;28;46825;-73
2022/08/30 06:09:26;;;;;;;;;17.67;14.67;;;;;;;;5077899;28;45288;-73
2022/08/30 06:11:51;;;;;;;;;19.00;16.67;;;;;;;;5077963;28;45369;-73
2022/08/30 06:14:16;;;;;;;;;23.67;18.67;;;;;;;;5078221;28;45413;-73
2022/08/30 06:16:44;;;;;;;;;17.33;17.33;;;;;;;;5077827;28;46253;-73
2022/08/30 06:19:10;;;;;;;;;19.33;15.33;;;;;;;;5088566;27;45756;-74
2022/08/30 06:21:36;;;;;;;;;20.67;17.67;;;;;;;;5098347;27;45158;-73
2022/08/30 06:24:03;;;;;;;;;22.00;17.67;;;;;;;;5098335;27;45586;-75
2022/08/30 06:26:28;;;;;;;;;15.33;14.33;;;;;;;;5098117;27;47703;-74
2022/08/30 06:28:54;;;;;;;;;22.00;18.67;;;;;;;;5097021;27;45293;-75
2022/08/30 06:31:20;;;;;;;;;19.67;18.67;;;;;;;;5098385;27;45402;-75
2022/08/30 06:33:46;;;;;;;;;20.33;16.67;;;;;;;;5098602;27;45352;-76
2022/08/30 06:36:13;;;;;;;;;22.33;15.33;;;;;;;;5077882;27;46300;-75
2022/08/30 06:38:39;;;;;;;;;19.67;14.67;;;;;;;;5077732;28;45415;-76
2022/08/30 06:41:12;;;;;;;;;22.00;18.00;;;;;;;;5077833;28;45305;-75
2022/08/30 06:43:37;;;;;;;;;24.33;17.33;;;;;;;;5077668;27;45411;-75
2022/08/30 06:46:04;;;;;;;;;20.33;17.67;;;;;;;;5077538;28;46325;-75
2022/08/30 06:48:29;;;;;;;;;19.00;15.67;;;;;;;;5077568;28;45478;-75
2022/08/30 06:50:54;;;;;;;;;19.33;18.00;;;;;;;;5078753;27;45515;-76
2022/08/30 06:53:19;;;;;;;;;19.67;15.67;;;;;;;;5098242;27;45515;-73
2022/08/30 06:55:45;;;;;;;;;24.00;21.67;;;;;;;;5097896;27;46316;-76
2022/08/30 06:58:10;;;;;;;;;22.67;18.67;;;;;;;;5097813;27;45218;-75
2022/08/30 07:00:35;;;;;;;;;24.33;19.67;;;;;;;;5097747;27;45289;-75
2022/08/30 07:03:01;;;;;;;;;18.00;17.67;;;;;;;;5098140;27;45236;-76
2022/08/30 07:05:26;;;;;;;;;16.00;16.00;;;;;;;;5097630;27;46501;-76
2022/08/30 07:07:53;;;;;;;;;21.00;17.67;;;;;;;;5088776;27;45498;-77
2022/08/30 07:10:20;;;;;;;;;20.33;17.33;;;;;;;;5077448;28;45530;-76
2022/08/30 07:12:45;;;;;;;;;24.67;19.00;;;;;;;;5077019;28;45317;-76
2022/08/30 07:15:11;;;;;;;;;24.33;17.00;;;;;;;;5076765;28;46615;-75
2022/08/30 07:20:20;;;;;;;;;27.33;21.33;;;;;;;;5077260;28;45341;-76
2022/08/30 07:22:46;;;;;;;;;20.33;19.00;;;;;;;;5077127;27;45322;-74
2022/08/30 07:25:12;;;;;;;;;18.67;17.00;;;;;;;;5076996;28;46716;-75
2022/08/30 07:27:37;;;;;;;;;19.33;19.00;;;;;;;;5076986;28;45451;-74
2022/08/30 07:30:04;;;;;;;;;19.00;17.67;;;;;;;;5076942;28;45313;-73
2022/08/30 07:32:29;;;;;;;;;20.33;15.67;;;;;;;;5077034;27;45351;-74
2022/08/30 07:34:54;;;;;;;;;17.67;17.67;;;;;;;;5076855;28;45878;-73
2022/08/30 07:37:19;;;;;;;;;22.67;20.33;;;;;;;;5082210;27;45415;-74
2022/08/30 07:39:45;;;;;;;;;23.33;19.33;;;;;;;;5098425;27;45380;-74
2022/08/30 07:42:10;;;;;;;;;17.00;15.33;;;;;;;;5099795;27;45388;-75
2022/08/30 07:44:35;;;;;;;;;19.67;19.00;;;;;;;;5098394;27;45452;-76
2022/08/30 07:47:00;;;;;;;;;24.00;20.00;;;;;;;;5100360;27;45292;-74
2022/08/30 07:49:26;;;;;;;;;21.00;19.33;;;;;;;;5098752;27;45781;-75
2022/08/30 07:51:51;;;;;;;;;16.00;15.67;;;;;;;;5100207;27;45206;-73
2022/08/30 07:54:16;;;;;;;;;19.00;16.67;;;;;;;;5099666;27;45450;-73
2022/08/30 07:56:41;;;;;;;;;18.00;17.67;;;;;;;;5088761;27;45226;-73
2022/08/30 07:59:07;;;;;;;;;17.00;15.33;;;;;;;;5095686;27;45312;-72
2022/08/30 08:01:32;;;;;;;;;19.33;17.67;;;;;;;;5100270;27;45301;-74
2022/08/30 08:03:57;;;;;;;;;20.67;18.67;;;;;;;;5099861;27;45565;-74
2022/08/30 08:06:23;;;;;;;;;21.33;20.00;;;;;;;;5099674;27;45323;-74
2022/08/30 08:08:48;;;;;;;;;21.67;18.67;;;;;;;;5099846;27;45170;-74
2022/08/30 08:11:16;;;;;;;;;20.00;16.00;;;;;;;;5100036;27;45519;-74
2022/08/30 08:13:42;;;;;;;;;22.00;15.67;;;;;;;;5098924;27;46759;-75
2022/08/30 08:16:07;;;;;;;;;24.67;21.67;;;;;;;;5099564;27;45454;-74
2022/08/30 08:18:33;;;;;;;;;24.33;17.33;;;;;;;;5099816;27;45381;-74
2022/08/30 08:20:59;;;;;;;;;18.33;17.67;;;;;;;;5099941;27;45504;-75
2022/08/30 08:23:24;;;;;;;;;22.00;16.00;;;;;;;;5099389;27;45360;-74
2022/08/30 08:25:50;;;;;;;;;20.00;16.67;;;;;;;;5099576;27;45285;-74
2022/08/30 08:28:15;;;;;;;;;20.33;19.33;;;;;;;;5092839;27;45738;-75
2022/08/30 08:30:41;;;;;;;;;16.67;16.00;;;;;;;;5096025;27;45477;-74
2022/08/30 08:33:06;;;;;;;;;19.67;17.00;;;;;;;;5098104;27;46115;-75
2022/08/30 08:35:32;;;;;;;;;15.67;15.67;;;;;;;;5098738;27;45326;-74
2022/08/30 08:37:57;;;;;;;;;17.00;15.67;;;;;;;;5097836;27;45435;-75
2022/08/30 08:40:23;;;;;;;;;23.33;16.67;;;;;;;;5098651;27;45346;-72
2022/08/30 08:43:06;;;;;;;;;22.33;17.33;;;;;;;;5099503;27;46603;-74
2022/08/30 08:45:37;;;;;;;;;16.67;16.33;;;;;;;;5099410;27;45249;-77
2022/08/30 08:48:21;;;;;;;;;22.67;21.67;;;;;;;;5093459;27;45507;-74
2022/08/30 08:53:35;;;;;;;;;16.33;16.00;;;;;;;;5083415;27;45594;-76
2022/08/30 08:56:05;;;;;;;;;16.67;15.33;;;;;;;;5092344;27;45451;-74
2022/08/30 08:58:44;;;;;;;;;21.67;16.67;;;;;;;;5078875;28;45398;-73
2022/08/30 09:01:14;;;;;;;;;15.67;15.67;;;;;;;;5078471;27;45749;-74
2022/08/30 09:03:40;;;;;;;;;14.33;12.67;;;;;;;;5078030;27;45525;-71
2022/08/30 09:06:14;;;;;;;;;17.33;13.33;;;;;;;;5078311;27;45426;-74
2022/08/30 09:08:39;;;;;;;;;19.67;16.67;;;;;;;;5078662;28;45333;-82
2022/08/30 09:11:09;;;;;;;;;19.00;17.33;;;;;;;;5084316;27;45753;-76
2022/08/30 09:13:35;;;;;;;;;18.33;16.67;;;;;;;;5098925;27;45358;-74
2022/08/30 09:16:00;;;;;;;;;14.00;11.67;;;;;;;;5098301;27;45439;-69
2022/08/30 09:18:43;;;;;;;;;14.67;12.33;;;;;;;;5098859;27;45227;-73
2022/08/30 09:21:09;;;;;;;;;13.33;11.67;;;;;;;;5098945;27;45401;-71
2022/08/30 09:23:34;;;;;;;;;12.67;11.67;;;;;;;;5089115;27;46417;-72
2022/08/30 09:26:07;;;;;;;;;14.33;12.33;;;;;;;;5078249;28;45384;-73
2022/08/30 09:28:33;;;;;;;;;13.33;12.33;;;;;;;;5078691;27;45396;-71
2022/08/30 09:31:04;;;;;;;;;17.00;11.67;;;;;;;;5078481;27;45356;-72
2022/08/30 09:33:30;;;;;;;;;15.67;13.33;;;;;;;;5078308;28;45648;-77
2022/08/30 09:35:56;;;;;;;;;16.33;14.00;;;;;;;;5078279;28;45401;-72
2022/08/30 09:38:21;;;;;;;;;12.00;12.00;;;;;;;;5081062;27;45514;-72
2022/08/30 09:40:51;;;;;;;;;13.67;12.00;;;;;;;;5099193;27;45347;-73
2022/08/30 09:43:16;;;;;;;;;11.33;11.33;;;;;;;;5098523;27;45539;-70
2022/08/30 09:45:43;;;;;;;;;13.33;10.00;;;;;;;;5091141;27;45472;-71
2022/08/30 09:48:28;;;;;;;;;12.33;12.33;;;;;;;;5092575;27;45415;-71
2022/08/30 09:51:13;;;;;;;;;9.67;9.67;;;;;;;;5096892;27;45325;-74
2022/08/30 09:54:01;;;;;;;;;12.00;10.33;;;;;;;;5092875;27;45580;-71
2022/08/30 09:56:33;;;;;;;;;11.00;11.00;;;;;;;;5077062;28;45426;-74
2022/08/30 09:59:12;;;;;;;;;8.33;8.00;;;;;;;;5076898;27;45847;-74
2022/08/30 10:01:45;;;;;;;;;10.00;8.67;;;;;;;;5079504;27;45487;-74
2022/08/30 10:04:16;;;;;;;;;9.00;8.00;;;;;;;;5096385;27;45469;-73
2022/08/30 10:06:41;;;;;;;;;8.33;8.00;;;;;;;;5078881;27;45618;-76
2022/08/30 10:09:24;;;;;;;;;9.00;9.00;;;;;;;;5097290;27;45420;-69
2022/08/30 10:12:04;;;;;;;;;8.00;8.00;;;;;;;;5095997;27;45527;-73
2022/08/30 10:14:45;;;;;;;;;12.00;9.00;;;;;;;;5097321;27;45414;-71
2022/08/30 10:17:17;;;;;;;;;10.33;9.00;;;;;;;;5097795;27;45249;-80
2022/08/30 10:19:42;;;;;;;;;8.67;7.00;;;;;;;;5098406;27;45347;-69
2022/08/30 10:22:12;;;;;;;;;11.33;11.33;;;;;;;;5098059;27;45372;-78
2022/08/30 10:24:45;;;;;;;;;9.00;6.67;;;;;;;;5098204;27;46020;-74
2022/08/30 10:27:17;;;;;;;;;5.67;5.67;;;;;;;;5097604;27;45221;-68
2022/08/30 10:29:48;;;;;;;;;10.33;7.33;;;;;;;;5096466;27;45382;-70
2022/08/30 10:32:13;;;;;;;;;5.00;5.00;;;;;;;;5097844;27;45253;-74
2022/08/30 10:34:42;;;;;;;;;7.00;4.00;;;;;;;;5097605;27;45630;-74
2022/08/30 10:37:16;;;;;;;;;7.00;7.00;;;;;;;;5097495;27;45324;-74
2022/08/30 10:39:45;;;;;;;;;7.50;5.25;;;;;;;;5097892;27;45297;-72
2022/08/30 10:42:15;;;;;;;;;6.33;6.33;;;;;;;;5098270;27;45359;-76
2022/08/30 10:44:44;;;;;;;;;9.00;8.00;;;;;;;;5096341;27;45422;-75
2022/08/30 10:47:30;;;;;;;;;8.00;7.00;;;;;;;;5097614;27;45407;-76
2022/08/30 10:50:22;;;;;;;;;6.00;4.00;;;;;;;;5098002;27;45283;-76
2022/08/30 10:52:54;;;;;;;;;8.00;5.00;;;;;;;;5093994;27;45309;-77
2022/08/30 10:55:43;;;;;;;;;8.00;8.00;;;;;;;;5097568;27;46427;-77
2022/08/30 10:58:10;;;;;;;;;8.67;6.67;;;;;;;;5085650;27;45296;-77
2022/08/30 11:00:41;;;;;;;;;7.67;7.67;;;;;;;;5078651;27;45386;-76
2022/08/30 11:03:16;;;;;;;;;8.00;8.00;;;;;;;;5077741;27;45372;-77
2022/08/30 11:05:41;;;;;;;;;9.00;8.00;;;;;;;;5077191;28;45513;-74
2022/08/30 11:08:20;;;;;;;;;4.67;4.67;;;;;;;;5076733;28;45573;-73
2022/08/30 11:10:57;;;;;;;;;8.33;7.33;;;;;;;;5058830;28;45343;-78
2022/08/30 11:13:25;;;;;;;;;9.00;7.67;;;;;;;;5076952;28;45361;-75
2022/08/30 11:15:59;;;;;;;;;7.67;6.00;;;;;;;;5080592;28;45388;-74
2022/08/30 11:18:26;;;;;;;;;8.00;8.00;;;;;;;;5080432;27;45448;-74
2022/08/30 11:20:53;;;;;;;;;5.67;5.67;;;;;;;;5099399;27;45454;-73
2022/08/30 11:23:22;;;;;;;;;5.00;5.00;;;;;;;;5101089;27;45324;-74
2022/08/30 11:25:52;;;;;;;;;6.00;6.00;;;;;;;;5100884;27;46207;-74
2022/08/30 11:28:35;;;;;;;;;6.33;6.00;;;;;;;;5100902;27;45430;-74
2022/08/30 11:31:10;;;;;;;;;5.67;4.00;;;;;;;;5100746;27;45417;-72
2022/08/30 11:33:39;;;;;;;;;8.33;6.33;;;;;;;;5100965;27;45586;-78
2022/08/30 11:36:05;;;;;;;;;9.33;7.67;;;;;;;;5099441;27;45288;-85
2022/08/30 11:38:30;;;;;;;;;8.00;6.33;;;;;;;;5100769;27;45439;-73
2022/08/30 11:40:57;;;;;;;;;6.67;6.67;;;;;;;;5100617;27;45223;-77
2022/08/30 11:43:35;;;;;;;;;8.33;6.33;;;;;;;;5101088;27;45453;-74
2022/08/30 11:46:18;;;;;;;;;5.00;5.00;;;;;;;;5100701;27;46156;-74
2022/08/30 11:48:43;;;;;;;;;9.33;7.00;;;;;;;;5081985;27;45301;-77
2022/08/30 11:51:18;;;;;;;;;5.00;5.00;;;;;;;;5100328;27;45424;-77
2022/08/30 11:53:43;;;;;;;;;5.33;4.67;;;;;;;;5082453;27;45336;-75
2022/08/30 11:56:19;;;;;;;;;5.00;5.00;;;;;;;;5080101;28;46278;-73
2022/08/30 11:58:46;;;;;;;;;4.33;4.33;;;;;;;;5080011;28;45294;-70
2022/08/30 12:01:12;;;;;;;;;9.00;7.33;;;;;;;;5080035;27;45344;-79
2022/08/30 12:03:37;;;;;;;;;7.00;5.33;;;;;;;;5080210;28;45314;-71
2022/08/30 12:06:04;;;;;;;;;4.00;4.00;;;;;;;;5079891;28;45438;-71
2022/08/30 12:08:33;;;;;;;;;6.33;6.33;;;;;;;;5079109;27;45557;-73
2022/08/30 12:10:59;;;;;;;;;7.33;7.00;;;;;;;;5079752;28;45396;-75
2022/08/30 12:13:45;;;;;;;;;5.00;5.00;;;;;;;;5080107;28;45320;-72
2022/08/30 12:16:33;;;;;;;;;8.67;6.67;;;;;;;;5065075;27;46448;-75
2022/08/30 12:19:10;;;;;;;;;7.67;7.67;;;;;;;;5079277;28;45281;-72
2022/08/30 12:21:35;;;;;;;;;8.00;5.33;;;;;;;;5079837;28;45374;-70
2022/08/30 12:24:19;;;;;;;;;5.33;5.33;;;;;;;;5079951;28;45348;-78
2022/08/30 12:26:46;;;;;;;;;7.33;6.00;;;;;;;;5097399;27;46759;-82
2022/08/30 12:29:11;;;;;;;;;7.00;6.00;;;;;;;;5099809;27;45301;-70
2022/08/30 12:31:55;;;;;;;;;9.00;7.67;;;;;;;;5100071;27;45282;-71
2022/08/30 12:34:48;;;;;;;;;8.67;6.00;;;;;;;;5081628;27;45785;-76
2022/08/30 12:37:22;;;;;;;;;7.67;6.00;;;;;;;;5099770;27;46141;-75
2022/08/30 12:39:49;;;;;;;;;7.67;7.67;;;;;;;;5099721;27;45379;-77
2022/08/30 12:42:18;;;;;;;;;9.33;7.33;;;;;;;;5098572;27;45589;-75
2022/08/30 12:44:45;;;;;;;;;7.33;7.33;;;;;;;;5099936;27;45391;-72
2022/08/30 12:47:12;;;;;;;;;8.33;6.67;;;;;;;;5099563;27;46278;-78
2022/08/30 12:49:38;;;;;;;;;6.33;5.33;;;;;;;;5099337;27;45432;-78
2022/08/30 12:52:22;;;;;;;;;8.00;7.00;;;;;;;;5099779;27;45489;-75
2022/08/30 12:54:47;;;;;;;;;6.67;6.67;;;;;;;;5099405;27;45396;-74
2022/08/30 12:57:32;;;;;;;;;8.00;8.00;;;;;;;;5089707;27;46043;-74
2022/08/30 12:59:59;;;;;;;;;5.00;5.00;;;;;;;;5099161;27;45335;-76
2022/08/30 13:02:25;;;;;;;;;7.00;7.00;;;;;;;;5099572;27;45469;-76
2022/08/30 13:04:52;;;;;;;;;7.33;6.00;;;;;;;;5099371;27;45522;-74
2022/08/30 13:07:28;;;;;;;;;8.33;8.00;;;;;;;;5099037;27;45444;-73
2022/08/30 13:10:05;;;;;;;;;10.00;7.00;;;;;;;;5099281;27;45328;-74
2022/08/30 13:12:31;;;;;;;;;7.00;7.00;;;;;;;;5097905;27;45638;-72
2022/08/30 13:15:31;;;;;;;;;8.33;6.00;;;;;;;;5099187;27;45491;-75
2022/08/30 13:18:10;;;;;;;;;11.33;8.33;;;;;;;;5015756;28;46206;-75
2022/08/30 13:20:35;;;;;;;;;7.00;6.00;;;;;;;;5015753;28;45472;-74
2022/08/30 13:23:08;;;;;;;;;7.33;7.33;;;;;;;;5016499;28;45626;-74
2022/08/30 13:25:34;;;;;;;;;7.00;7.00;;;;;;;;5016434;28;45247;-76
2022/08/30 13:28:01;;;;;;;;;7.67;6.67;;;;;;;;5015259;28;46346;-74
2022/08/30 13:30:27;;;;;;;;;7.67;7.67;;;;;;;;4996380;28;45466;-76
2022/08/30 13:32:52;;;;;;;;;8.00;8.00;;;;;;;;4996242;28;45542;-75
2022/08/30 13:35:17;;;;;;;;;8.00;8.00;;;;;;;;4996383;28;45340;-76
2022/08/30 13:37:42;;;;;;;;;9.00;9.00;;;;;;;;4995117;28;46142;-75
2022/08/30 13:40:09;;;;;;;;;7.33;7.33;;;;;;;;4994709;28;45374;-75
2022/08/30 13:42:35;;;;;;;;;9.00;6.67;;;;;;;;4996033;28;45499;-76
2022/08/30 13:45:00;;;;;;;;;8.00;8.00;;;;;;;;4996338;28;45390;-77
2022/08/30 13:47:25;;;;;;;;;7.67;6.33;;;;;;;;5011654;28;45448;-76
2022/08/30 13:49:51;;;;;;;;;9.33;9.33;;;;;;;;5015391;28;45443;-77
2022/08/30 13:52:21;;;;;;;;;7.00;7.00;;;;;;;;5055959;28;45247;-77
2022/08/30 13:54:46;;;;;;;;;8.33;7.33;;;;;;;;5078431;28;45382;-76
2022/08/30 13:57:11;;;;;;;;;8.33;8.00;;;;;;;;5078857;28;46379;-75
2022/08/30 13:59:36;;;;;;;;;7.33;7.33;;;;;;;;5078021;28;45413;-75
2022/08/30 14:02:02;;;;;;;;;7.00;7.00;;;;;;;;5078413;28;45473;-74
2022/08/30 14:04:27;;;;;;;;;9.00;9.00;;;;;;;;5077674;27;45430;-77
2022/08/30 14:06:52;;;;;;;;;7.67;7.00;;;;;;;;5077810;28;45313;-77
2022/08/30 14:09:18;;;;;;;;;8.67;7.00;;;;;;;;5077977;28;45317;-76
2022/08/30 14:11:43;;;;;;;;;8.33;7.00;;;;;;;;5078130;28;45490;-76
2022/08/30 14:14:09;;;;;;;;;11.33;8.33;;;;;;;;5078141;28;45362;-75
2022/08/30 14:16:35;;;;;;;;;14.67;11.00;;;;;;;;5077763;27;46412;-76
2022/08/30 14:19:00;;;;;;;;;6.33;6.33;;;;;;;;5077048;27;45322;-76
2022/08/30 14:21:26;;;;;;;;;11.67;9.67;;;;;;;;5077853;28;45379;-75
2022/08/30 14:23:52;;;;;;;;;8.67;8.33;;;;;;;;5078249;28;45340;-77
2022/08/30 14:26:22;;;;;;;;;13.33;10.00;;;;;;;;5077801;28;46741;-76
2022/08/30 14:28:48;;;;;;;;;10.67;8.00;;;;;;;;5077552;28;45428;-75
2022/08/30 14:31:14;;;;;;;;;11.00;10.00;;;;;;;;5077825;28;45320;-77
2022/08/30 14:33:40;;;;;;;;;6.67;6.67;;;;;;;;5077916;28;45821;-74
2022/08/30 14:36:05;;;;;;;;;9.00;7.67;;;;;;;;5087966;27;45715;-77